Time;durP1;ratioP1;P1;durP2;ratioP2;P2;SDS_P1;SDS_P2;PMS_P1;PMS_P2;Temp;Humidity;BMP_temperature;BMP_pressure;BME280_temperature;BME280_humidity;BME280_pressure;Samples;Min_cycle;Max_cycle;Signal;HPM_P1;HPM_P2
2021/11/08 00:02:03;;;;;;;9.73;3.50;;;;;;;6.79;100.00;97106.63;5110567;28;20183;-67
2021/11/08 00:04:28;;;;;;;6.67;3.40;;;;;;;6.90;100.00;97109.47;5094679;28;20354;-67
2021/11/08 00:06:55;;;;;;;5.60;3.57;;;;;;;6.80;100.00;97116.84;5094427;28;20259;-67
2021/11/08 00:09:21;;;;;;;4.60;3.50;;;;;;;6.94;100.00;97105.47;5094221;28;20206;-67
2021/11/08 00:11:47;;;;;;;7.17;3.57;;;;;;;6.97;100.00;97099.06;5107891;28;20195;-67
2021/11/08 00:14:17;;;;;;;9.97;4.30;;;;;;;7.01;99.79;97095.88;5097286;28;20188;-67
2021/11/08 00:16:51;;;;;;;6.97;4.03;;;;;;;6.99;99.24;97095.28;5103600;28;20175;-66
2021/11/08 00:22:02;;;;;;;7.23;3.67;;;;;;;6.88;99.72;97095.84;5094398;28;20225;-66
2021/11/08 00:24:28;;;;;;;9.00;3.43;;;;;;;6.74;100.00;97094.19;5093814;28;20185;-68
2021/11/08 00:26:55;;;;;;;5.50;3.57;;;;;;;6.79;100.00;97091.00;5104404;28;20655;-67
2021/11/08 00:29:20;;;;;;;5.97;3.67;;;;;;;6.88;100.00;97093.22;5113654;28;20316;-66
2021/11/08 00:31:45;;;;;;;7.93;3.73;;;;;;;6.79;100.00;97081.38;5095615;28;20567;-67
2021/11/08 00:34:11;;;;;;;10.17;4.60;;;;;;;6.79;99.80;97091.00;5093703;28;20223;-66
2021/11/08 00:36:37;;;;;;;8.17;4.17;;;;;;;6.56;100.00;97102.53;5101785;28;20190;-66
2021/11/08 00:39:04;;;;;;;9.07;4.10;;;;;;;6.41;100.00;97106.25;5113470;28;20266;-67
2021/11/08 00:41:30;;;;;;;6.97;4.20;;;;;;;6.45;100.00;97113.50;5112052;28;20180;-67
2021/11/08 00:43:55;;;;;;;12.30;4.00;;;;;;;6.36;100.00;97117.22;5112790;28;20266;-66
2021/11/08 00:46:21;;;;;;;5.47;3.80;;;;;;;6.24;100.00;97122.16;5112067;28;20200;-66
2021/11/08 00:48:46;;;;;;;7.60;4.17;;;;;;;6.22;100.00;97115.53;5113094;28;20180;-66
2021/11/08 00:51:14;;;;;;;4.27;3.73;;;;;;;6.20;100.00;97117.53;5105362;28;20666;-67
2021/11/08 00:53:40;;;;;;;9.20;3.73;;;;;;;6.12;100.00;97108.09;5091579;28;20586;-67
2021/11/08 00:56:10;;;;;;;11.27;4.87;;;;;;;6.21;100.00;97119.94;5104470;28;20176;-66
2021/11/08 00:58:38;;;;;;;6.33;4.00;;;;;;;6.15;100.00;97112.91;5113646;28;20258;-66
2021/11/08 01:01:07;;;;;;;7.97;4.43;;;;;;;6.17;100.00;97110.91;5111301;28;20180;-66
2021/11/08 01:03:41;;;;;;;8.30;4.10;;;;;;;6.04;100.00;97110.00;5102576;28;20207;-66
2021/11/08 01:06:07;;;;;;;10.97;4.20;;;;;;;6.01;100.00;97108.63;5102996;28;20184;-67
2021/11/08 01:08:33;;;;;;;6.57;4.97;;;;;;;5.75;100.00;97108.38;5093231;28;20329;-66
2021/11/08 01:10:59;;;;;;;8.47;4.67;;;;;;;5.88;100.00;97111.09;5093038;28;20283;-67
2021/11/08 01:13:24;;;;;;;11.47;4.47;;;;;;;5.83;100.00;97106.44;5101611;28;20260;-66
2021/11/08 01:15:51;;;;;;;8.90;4.50;;;;;;;5.95;100.00;97111.16;5101021;28;20657;-66
2021/11/08 01:18:18;;;;;;;5.93;4.13;;;;;;;5.85;100.00;97125.25;5091827;28;20180;-66
2021/11/08 01:20:47;;;;;;;8.67;4.57;;;;;;;5.91;100.00;97128.94;5092429;28;20192;-66
2021/11/08 01:23:15;;;;;;;12.03;4.70;;;;;;;5.94;100.00;97136.38;5105932;28;20196;-67
2021/11/08 01:25:41;;;;;;;10.63;4.90;;;;;;;5.87;100.00;97138.09;5093165;28;20208;-67
2021/11/08 01:28:08;;;;;;;7.37;4.37;;;;;;;6.00;100.00;97124.41;5093080;28;20191;-64
2021/11/08 01:30:35;;;;;;;10.52;5.47;;;;;;;5.85;100.00;97129.69;5091238;28;20398;-64
2021/11/08 01:33:07;;;;;;;9.85;5.30;;;;;;;5.71;100.00;97126.16;5108863;28;20431;-64
2021/11/08 01:38:11;;;;;;;9.77;4.80;;;;;;;5.69;100.00;97135.13;5075771;28;20393;-64
2021/11/08 01:40:38;;;;;;;8.60;4.85;;;;;;;5.70;100.00;97145.34;5093262;28;20382;-65
2021/11/08 01:43:05;;;;;;;6.73;4.30;;;;;;;5.70;100.00;97142.75;5095595;28;20397;-65
2021/11/08 01:45:31;;;;;;;7.37;4.43;;;;;;;5.64;100.00;97143.47;5085737;28;20881;-65
2021/11/08 01:47:57;;;;;;;5.70;3.60;;;;;;;5.40;100.00;97144.69;5115781;28;20661;-65
2021/11/08 01:50:24;;;;;;;5.13;3.63;;;;;;;5.31;100.00;97148.38;5110626;28;20193;-65
2021/11/08 01:52:51;;;;;;;8.27;3.90;;;;;;;5.25;100.00;97145.69;5096732;28;20181;-65
2021/11/08 01:55:17;;;;;;;4.97;3.70;;;;;;;5.20;100.00;97153.22;5114433;28;20696;-65
2021/11/08 01:57:43;;;;;;;10.70;4.03;;;;;;;5.14;100.00;97152.16;5099898;28;20330;-65
2021/11/08 02:00:10;;;;;;;11.23;3.90;;;;;;;5.08;100.00;97150.31;5095480;28;20208;-65
2021/11/08 02:02:36;;;;;;;7.27;4.03;;;;;;;4.94;100.00;97159.75;5096899;28;20653;-65
2021/11/08 02:05:04;;;;;;;7.50;3.73;;;;;;;4.93;100.00;97154.72;5106839;28;20302;-65
2021/11/08 02:07:29;;;;;;;7.07;4.10;;;;;;;4.87;100.00;97155.44;5101918;28;20196;-65
2021/11/08 02:09:55;;;;;;;5.97;3.30;;;;;;;4.83;100.00;97151.63;5096607;28;20192;-65
2021/11/08 02:12:21;;;;;;;9.53;4.27;;;;;;;4.79;100.00;97143.38;5096606;28;20169;-65
2021/11/08 02:14:47;;;;;;;8.50;4.30;;;;;;;4.78;100.00;97144.38;5096507;28;20200;-65
2021/11/08 02:17:12;;;;;;;7.90;5.10;;;;;;;4.80;100.00;97146.78;5097821;28;20701;-65
2021/11/08 02:19:38;;;;;;;8.13;4.93;;;;;;;4.76;100.00;97148.13;5095059;28;20188;-65
2021/11/08 02:22:05;;;;;;;6.30;4.50;;;;;;;4.74;100.00;97150.09;5095925;28;20237;-66
2021/11/08 02:24:31;;;;;;;6.43;4.03;;;;;;;4.77;100.00;97152.34;5099421;28;20312;-65
2021/11/08 02:26:57;;;;;;;8.17;4.50;;;;;;;4.71;100.00;97150.47;5105254;28;20197;-65
2021/11/08 02:29:23;;;;;;;8.07;4.13;;;;;;;4.71;100.00;97143.47;5096351;28;20545;-64
2021/11/08 02:31:50;;;;;;;7.53;4.27;;;;;;;4.75;100.00;97149.09;5095284;28;20283;-64
2021/11/08 02:34:16;;;;;;;9.00;4.27;;;;;;;4.72;100.00;97149.47;5096150;28;20192;-65
2021/11/08 02:36:42;;;;;;;8.40;4.80;;;;;;;4.68;100.00;97150.84;5104575;28;20187;-65
2021/11/08 02:39:21;;;;;;;6.13;4.63;;;;;;;4.70;100.00;97152.25;5116069;28;20679;-64
2021/11/08 02:41:49;;;;;;;6.60;3.90;;;;;;;4.72;100.00;97152.06;5115768;28;20689;-65
2021/11/08 02:44:14;;;;;;;10.43;6.07;;;;;;;4.83;100.00;97154.22;5110517;28;20397;-64
2021/11/08 02:46:41;;;;;;;10.33;6.20;;;;;;;4.95;100.00;97152.78;5102939;28;20384;-64
2021/11/08 02:49:09;;;;;;;8.98;5.90;;;;;;;4.95;100.00;97153.56;5103517;28;20378;-65
2021/11/08 02:51:36;;;;;;;9.32;5.97;;;;;;;5.03;100.00;97158.66;5104844;28;20941;-64
2021/11/08 02:54:09;;;;;;;11.15;5.72;;;;;;;4.99;100.00;97156.59;5114249;28;20416;-65
2021/11/08 02:56:35;;;;;;;9.65;5.50;;;;;;;5.05;100.00;97163.66;5107466;28;20416;-64
2021/11/08 02:59:00;;;;;;;7.20;5.53;;;;;;;5.08;100.00;97165.09;5094940;28;20890;-64
2021/11/08 03:01:27;;;;;;;12.30;5.90;;;;;;;5.10;100.00;97158.72;5102721;28;20397;-65
2021/11/08 03:03:56;;;;;;;8.65;5.43;;;;;;;5.09;100.00;97164.09;5093546;28;20928;-65
2021/11/08 03:08:51;;;;;;;7.40;5.40;;;;;;;5.10;100.00;97160.53;5108388;28;20872;-65
2021/11/08 03:11:17;;;;;;;7.90;5.50;;;;;;;5.09;100.00;97151.91;5104188;28;20791;-65
2021/11/08 03:13:51;;;;;;;9.13;5.53;;;;;;;5.11;100.00;97159.53;5093892;28;20883;-65
2021/11/08 03:16:38;;;;;;;8.35;5.43;;;;;;;5.09;100.00;97162.31;5096696;28;20401;-65
2021/11/08 03:19:15;;;;;;;7.57;5.03;;;;;;;5.01;100.00;97159.84;5105309;28;20410;-65
2021/11/08 03:21:42;;;;;;;9.52;5.22;;;;;;;5.05;100.00;97160.25;5108031;28;20483;-65
2021/11/08 03:24:12;;;;;;;8.17;4.27;;;;;;;4.81;100.00;97158.78;5115018;28;20192;-65
2021/11/08 03:26:44;;;;;;;8.47;3.83;;;;;;;4.66;100.00;97161.38;5093569;28;20263;-67
2021/11/08 03:29:11;;;;;;;6.87;3.63;;;;;;;4.59;100.00;97158.69;5096983;28;20187;-65
2021/11/08 03:31:39;;;;;;;6.63;3.40;;;;;;;4.57;100.00;97160.66;5110523;28;20798;-65
2021/11/08 03:34:07;;;;;;;5.07;3.63;;;;;;;4.55;100.00;97156.66;5102981;28;20222;-65
2021/11/08 03:36:32;;;;;;;9.57;4.07;;;;;;;4.50;100.00;97162.38;5094981;28;20176;-65
2021/11/08 03:38:58;;;;;;;11.53;4.00;;;;;;;4.49;100.00;97155.56;5094761;28;20184;-65
2021/11/08 03:41:24;;;;;;;8.17;3.90;;;;;;;4.54;100.00;97157.63;5094811;28;20189;-65
2021/11/08 03:43:49;;;;;;;5.37;3.97;;;;;;;4.47;100.00;97159.31;5104641;28;20203;-65
2021/11/08 03:46:15;;;;;;;7.17;4.43;;;;;;;4.49;100.00;97154.78;5114520;28;20259;-65
2021/11/08 03:48:41;;;;;;;9.27;4.40;;;;;;;4.44;100.00;97168.28;5114458;28;20552;-67
2021/11/08 03:51:08;;;;;;;10.53;4.10;;;;;;;4.41;100.00;97175.59;5094679;28;20228;-65
2021/11/08 03:53:34;;;;;;;7.80;3.67;;;;;;;4.37;100.00;97176.94;5093011;28;20172;-65
2021/11/08 03:56:00;;;;;;;6.60;4.00;;;;;;;4.36;100.00;97178.75;5093128;28;20177;-65
2021/11/08 03:58:25;;;;;;;10.20;5.20;;;;;;;4.42;100.00;97179.81;5095186;28;20400;-65
2021/11/08 04:00:51;;;;;;;7.70;4.93;;;;;;;4.45;100.00;97182.06;5112901;28;20392;-65
2021/11/08 04:03:17;;;;;;;10.02;5.60;;;;;;;4.55;100.00;97188.59;5108307;28;20731;-64
2021/11/08 04:05:43;;;;;;;11.77;4.97;;;;;;;4.64;100.00;97186.72;5093402;28;20401;-65
2021/11/08 04:08:13;;;;;;;10.90;4.78;;;;;;;4.62;100.00;97187.91;5094739;28;20748;-67
2021/11/08 04:10:41;;;;;;;8.70;4.53;;;;;;;4.63;100.00;97181.69;5094825;28;20409;-64
2021/11/08 04:13:08;;;;;;;7.47;4.43;;;;;;;4.68;100.00;97185.38;5097791;28;20423;-65
2021/11/08 04:15:39;;;;;;;10.98;4.50;;;;;;;4.65;100.00;97195.31;5104564;28;20429;-64
2021/11/08 04:18:10;;;;;;;12.98;4.53;;;;;;;4.65;100.00;97190.13;5092991;28;20432;-64
2021/11/08 04:20:39;;;;;;;7.13;4.28;;;;;;;4.66;100.00;97189.13;5092616;28;20404;-65
2021/11/08 04:23:05;;;;;;;7.70;4.10;;;;;;;4.65;100.00;97190.13;5100206;28;20392;-64
2021/11/08 04:25:31;;;;;;;8.70;4.17;;;;;;;4.66;100.00;97186.53;5112502;28;20388;-65
2021/11/08 04:27:57;;;;;;;7.40;4.20;;;;;;;4.66;100.00;97189.94;5112879;28;20384;-65
2021/11/08 04:30:26;;;;;;;11.73;4.40;;;;;;;4.67;100.00;97198.53;5111593;28;20400;-64
2021/11/08 04:33:05;;;;;;;9.20;4.00;;;;;;;4.72;100.00;97194.44;5103216;28;20446;-64
2021/11/08 04:35:43;;;;;;;6.47;3.70;;;;;;;4.58;100.00;97188.22;5097909;28;20176;-64
2021/11/08 04:46:19;;;;;;;8.10;3.73;;;;;;;4.31;100.00;97193.22;5101659;28;20183;-67
2021/11/08 04:54:17;;;;;;;5.60;3.17;;;;;;;4.43;100.00;97190.03;5109663;28;20183;-66
2021/11/08 04:57:10;;;;;;;6.57;3.37;;;;;;;4.50;100.00;97200.50;5104739;28;20168;-67
2021/11/08 05:32:13;;;;;;;8.47;4.30;;;;;;;4.06;100.00;97219.41;5100352;28;20222;-65
2021/11/08 05:34:38;;;;;;;8.97;4.20;;;;;;;4.06;100.00;97223.78;5112793;28;20644;-65
2021/11/08 05:37:08;;;;;;;8.40;4.53;;;;;;;4.06;100.00;97222.00;5110064;28;20230;-65
2021/11/08 05:39:38;;;;;;;8.40;3.93;;;;;;;4.11;100.00;97224.06;5096317;28;20180;-64
2021/11/08 05:42:04;;;;;;;10.17;4.40;;;;;;;4.17;100.00;97224.16;5081464;28;20650;-64
2021/11/08 05:44:31;;;;;;;9.03;4.47;;;;;;;4.23;100.00;97229.63;5112921;28;20172;-65
2021/11/08 05:46:57;;;;;;;8.90;4.30;;;;;;;4.28;100.00;97232.50;5103438;28;20191;-65
2021/11/08 05:49:22;;;;;;;10.43;4.20;;;;;;;4.24;100.00;97226.03;5107799;28;20179;-64
2021/11/08 05:51:48;;;;;;;11.17;4.70;;;;;;;4.23;100.00;97234.81;5112626;28;20203;-64
2021/11/08 05:54:13;;;;;;;10.60;4.77;;;;;;;4.21;100.00;97234.19;5112833;28;20184;-65
2021/11/08 05:57:39;;;;;;;9.80;4.67;;;;;;;4.28;100.00;97235.09;5094861;28;20534;-65
2021/11/08 06:51:24;;;;;;;7.50;4.40;;;;;;;4.57;100.00;97266.28;5095615;28;20237;-64
2021/11/08 06:53:54;;;;;;;8.20;4.20;;;;;;;4.64;100.00;97272.38;5106928;28;20570;-66
2021/11/08 06:56:26;;;;;;;11.40;4.23;;;;;;;4.80;100.00;97276.59;5115545;28;20247;-64
2021/11/08 06:58:51;;;;;;;83.73;29.00;;;;;;;4.84;100.00;97272.69;5112809;28;20277;-64
2021/11/08 07:01:17;;;;;;;60.80;20.73;;;;;;;4.91;100.00;97274.38;5098914;28;20184;-65
2021/11/08 07:03:42;;;;;;;50.83;18.67;;;;;;;5.00;100.00;97273.31;5105816;28;20181;-65
2021/11/08 07:06:08;;;;;;;60.60;20.27;;;;;;;5.13;100.00;97282.25;5095259;28;20260;-65
2021/11/08 07:08:33;;;;;;;42.07;15.37;;;;;;;5.19;100.00;97290.13;5095396;28;20233;-65
2021/11/08 07:10:59;;;;;;;39.33;14.27;;;;;;;5.28;100.00;97286.47;5096801;28;20541;-65
2021/11/08 07:13:24;;;;;;;22.30;8.60;;;;;;;5.40;100.00;97281.63;5115485;28;20180;-65
2021/11/08 07:15:50;;;;;;;20.30;7.97;;;;;;;5.50;100.00;97281.34;5097488;28;20719;-65
2021/11/08 07:18:16;;;;;;;15.03;6.73;;;;;;;5.66;100.00;97294.91;5113237;28;20200;-65
2021/11/08 07:20:41;;;;;;;15.87;5.83;;;;;;;5.85;100.00;97293.53;5095074;28;20177;-66
2021/11/08 07:23:06;;;;;;;11.33;5.00;;;;;;;6.39;100.00;97293.06;5104185;28;20191;-65
2021/11/08 07:25:32;;;;;;;10.33;5.03;;;;;;;6.61;98.01;97300.66;5115261;28;20180;-63
2021/11/08 07:27:58;;;;;;;16.83;5.87;;;;;;;6.66;97.36;97298.31;5114867;28;20619;-64
2021/11/08 07:30:25;;;;;;;13.03;6.47;;;;;;;6.53;96.35;97300.00;5099139;28;20619;-64
2021/11/08 07:32:50;;;;;;;13.83;5.17;;;;;;;6.42;97.45;97303.91;5114821;28;20255;-65
2021/11/08 07:35:16;;;;;;;11.33;5.27;;;;;;;6.59;97.39;97312.25;5099104;28;20256;-66
2021/11/08 07:37:41;;;;;;;10.40;4.57;;;;;;;6.86;96.82;97308.03;5098825;28;20180;-66
2021/11/08 07:40:08;;;;;;;10.47;4.40;;;;;;;6.84;97.28;97312.66;5114058;28;20183;-65
2021/11/08 07:42:34;;;;;;;13.67;5.27;;;;;;;6.68;100.00;97308.53;5100218;28;20204;-65
2021/11/08 07:44:59;;;;;;;8.57;5.20;;;;;;;6.71;99.70;97307.34;5111090;28;20187;-65
2021/11/08 07:47:24;;;;;;;8.17;4.00;;;;;;;6.93;98.23;97306.31;5112000;28;20187;-65
2021/11/08 07:49:50;;;;;;;10.33;4.27;;;;;;;7.04;96.09;97300.56;5114061;28;20188;-64
2021/11/08 07:52:15;;;;;;;7.63;4.10;;;;;;;7.31;95.18;97304.91;5079493;28;20239;-65
2021/11/08 07:54:41;;;;;;;5.70;3.60;;;;;;;7.28;94.80;97312.34;5094491;28;20185;-65
2021/11/08 07:57:06;;;;;;;11.50;4.47;;;;;;;7.27;94.62;97308.91;5111142;28;20215;-65
2021/11/08 07:59:32;;;;;;;16.70;5.17;;;;;;;7.44;93.53;97307.59;5094892;28;20177;-64
2021/11/08 08:01:57;;;;;;;9.93;4.73;;;;;;;7.19;93.76;97308.28;5102277;28;20192;-65
2021/11/08 08:04:23;;;;;;;9.13;4.43;;;;;;;7.17;94.66;97308.47;5106938;28;20232;-65
2021/11/08 08:06:49;;;;;;;6.83;4.27;;;;;;;7.21;93.90;97306.28;5094511;28;20187;-66
2021/11/08 08:09:16;;;;;;;8.80;4.33;;;;;;;7.32;93.86;97305.72;5095668;28;20197;-67
2021/11/08 08:11:42;;;;;;;8.93;4.40;;;;;;;7.18;93.96;97299.66;5112909;28;20536;-66
2021/11/08 08:14:08;;;;;;;8.03;4.90;;;;;;;7.06;94.14;97298.56;5114108;28;20209;-66
2021/11/08 08:16:34;;;;;;;7.83;4.63;;;;;;;7.38;92.15;97302.34;5096427;28;20204;-66
2021/11/08 08:18:59;;;;;;;9.70;4.67;;;;;;;7.29;93.03;97301.72;5094276;28;20188;-66
2021/11/08 08:21:25;;;;;;;10.67;4.10;;;;;;;7.57;91.12;97304.25;5095325;28;20184;-66
2021/11/08 08:23:55;;;;;;;10.57;4.30;;;;;;;7.70;90.32;97298.25;5092322;28;20633;-66
2021/11/08 08:26:25;;;;;;;9.50;4.87;;;;;;;7.57;90.56;97298.22;5109593;28;20176;-68
2021/11/08 08:28:51;;;;;;;6.87;4.10;;;;;;;7.66;90.01;97297.06;5077650;28;20170;-66
2021/11/08 08:31:18;;;;;;;7.43;4.30;;;;;;;7.52;90.00;97299.59;5093647;28;20219;-66
2021/11/08 08:33:44;;;;;;;8.87;3.83;;;;;;;7.60;89.83;97298.63;5094432;28;20192;-66
2021/11/08 08:36:09;;;;;;;11.40;3.47;;;;;;;7.61;88.55;97299.44;5107806;28;20546;-67
2021/11/08 08:38:35;;;;;;;8.27;3.00;;;;;;;7.59;88.26;97298.81;5103132;28;20185;-68
2021/11/08 08:41:01;;;;;;;6.80;3.10;;;;;;;7.62;88.02;97294.03;5087536;28;20241;-68
2021/11/08 08:43:28;;;;;;;9.87;3.27;;;;;;;7.69;87.66;97294.84;5093845;28;20521;-67
2021/11/08 08:45:55;;;;;;;8.03;3.33;;;;;;;7.70;88.36;97309.50;5088397;28;20569;-67
2021/11/08 08:48:21;;;;;;;7.40;4.20;;;;;;;8.05;88.60;97310.22;5105303;28;20641;-67
2021/11/08 08:50:46;;;;;;;8.60;4.50;;;;;;;7.80;91.26;97303.94;5101819;28;20193;-66
2021/11/08 08:53:12;;;;;;;6.77;4.97;;;;;;;7.76;91.73;97313.13;5113285;28;20351;-67
2021/11/08 08:55:39;;;;;;;10.93;5.17;;;;;;;7.66;91.45;97310.09;5111693;28;20187;-68
2021/11/08 08:58:06;;;;;;;7.40;4.83;;;;;;;7.46;91.56;97304.81;5093252;28;20177;-66
2021/11/08 09:00:33;;;;;;;11.60;4.20;;;;;;;7.27;91.78;97305.50;5109379;28;20176;-66
2021/11/08 09:02:58;;;;;;;9.37;4.97;;;;;;;6.88;94.68;97321.69;5093603;28;20184;-68
2021/11/08 09:05:25;;;;;;;6.43;3.93;;;;;;;6.83;94.12;97319.66;5112537;28;20606;-67
2021/11/08 09:07:51;;;;;;;13.33;5.07;;;;;;;6.93;92.96;97322.75;5101392;28;20180;-68
2021/11/08 09:10:18;;;;;;;9.23;5.10;;;;;;;7.02;94.33;97310.38;5092866;28;20185;-67
2021/11/08 09:12:43;;;;;;;7.40;4.60;;;;;;;6.86;94.82;97316.66;5109721;28;20298;-68
2021/11/08 09:15:10;;;;;;;8.73;5.33;;;;;;;7.07;95.06;97308.81;5094774;28;20594;-67
2021/11/08 09:17:36;;;;;;;14.23;5.40;;;;;;;7.15;94.32;97304.44;5112687;28;20532;-68
2021/11/08 09:20:02;;;;;;;14.50;5.87;;;;;;;7.14;94.40;97300.19;5113394;28;20237;-67
2021/11/08 09:22:27;;;;;;;10.03;5.30;;;;;;;7.09;94.03;97298.19;5095780;28;20180;-68
2021/11/08 09:24:53;;;;;;;13.50;6.33;;;;;;;7.13;93.67;97304.63;5091418;28;20257;-68
2021/11/08 09:27:19;;;;;;;11.40;5.77;;;;;;;7.14;93.94;97306.22;5094405;28;20188;-68
2021/11/08 09:29:44;;;;;;;11.57;4.97;;;;;;;7.35;92.79;97314.00;5092407;28;20206;-68
2021/11/08 09:32:10;;;;;;;11.13;5.30;;;;;;;7.39;91.04;97322.22;5102282;28;20644;-69
2021/11/08 09:34:44;;;;;;;14.17;6.87;;;;;;;7.33;92.10;97318.56;5103947;28;20201;-66
2021/11/08 09:37:13;;;;;;;11.93;6.50;;;;;;;7.33;91.51;97312.56;5094218;28;20232;-70
2021/11/08 09:39:39;;;;;;;18.67;8.30;;;;;;;7.38;92.41;97324.03;5109515;28;20199;-70
2021/11/08 09:42:08;;;;;;;17.13;7.77;;;;;;;7.43;92.13;97326.84;5103808;28;20181;-70
2021/11/08 09:44:34;;;;;;;22.40;9.70;;;;;;;7.54;90.96;97325.50;5111716;28;20245;-72
2021/11/08 09:46:59;;;;;;;13.93;6.83;;;;;;;7.43;90.92;97337.28;5106757;28;20183;-71
2021/11/08 09:49:26;;;;;;;16.67;8.07;;;;;;;7.69;91.54;97325.38;5112253;28;20211;-72
2021/11/08 09:51:52;;;;;;;17.90;7.03;;;;;;;8.19;87.95;97329.34;5097049;28;20191;-72
2021/11/08 09:54:19;;;;;;;15.30;7.20;;;;;;;8.13;87.70;97330.13;5092977;28;20181;-72
2021/11/08 09:56:46;;;;;;;13.10;7.10;;;;;;;8.43;86.76;97333.22;5101435;28;20172;-72
2021/11/08 09:59:14;;;;;;;14.03;6.90;;;;;;;8.07;84.99;97341.34;5107477;28;20321;-72
2021/11/08 10:01:42;;;;;;;17.37;6.80;;;;;;;8.02;86.61;97335.94;5112361;28;20230;-73
2021/11/08 10:04:10;;;;;;;15.10;6.90;;;;;;;8.08;86.41;97335.13;5116168;28;20251;-73
2021/11/08 10:06:37;;;;;;;14.83;6.50;;;;;;;8.05;87.23;97338.94;5116322;28;20187;-73
2021/11/08 10:09:06;;;;;;;11.57;6.87;;;;;;;7.62;89.90;97342.78;5116857;28;20183;-72
2021/11/08 10:11:31;;;;;;;13.27;6.53;;;;;;;7.59;90.94;97343.97;5097239;28;20208;-72
2021/11/08 10:13:57;;;;;;;9.60;5.80;;;;;;;7.66;89.11;97341.41;5110933;28;20192;-72
2021/11/08 10:16:28;;;;;;;13.97;5.90;;;;;;;7.61;88.93;97346.41;5101164;28;20555;-71
2021/11/08 10:18:57;;;;;;;8.53;5.30;;;;;;;7.90;88.03;97339.09;5117040;28;20160;-70
2021/11/08 10:21:32;;;;;;;11.83;5.77;;;;;;;7.91;87.82;97343.28;5115541;28;20191;-70
2021/11/08 10:24:01;;;;;;;10.30;5.17;;;;;;;7.72;88.22;97343.22;5112640;28;20616;-70
2021/11/08 10:26:33;;;;;;;10.53;5.20;;;;;;;7.80;89.18;97345.69;5103649;28;20177;-70
2021/11/08 10:29:04;;;;;;;11.70;4.90;;;;;;;7.66;87.58;97338.78;5096198;28;20191;-71
2021/11/08 10:31:32;;;;;;;13.73;5.17;;;;;;;7.57;88.85;97339.97;5097252;28;20200;-72
2021/11/08 10:34:01;;;;;;;15.27;5.90;;;;;;;7.66;89.82;97339.59;5096504;28;20191;-71
2021/11/08 10:36:26;;;;;;;14.73;6.57;;;;;;;7.59;90.02;97341.38;5098000;28;20231;-73
2021/11/08 10:38:55;;;;;;;11.83;6.30;;;;;;;7.70;88.68;97345.22;5116214;28;20597;-68
2021/11/08 10:41:26;;;;;;;12.47;6.00;;;;;;;8.09;87.30;97339.34;5109434;28;20268;-69
2021/11/08 10:43:58;;;;;;;11.40;5.63;;;;;;;8.15;86.60;97338.56;5095769;28;20268;-68
2021/11/08 10:46:34;;;;;;;13.30;5.17;;;;;;;8.28;84.99;97342.00;5095992;28;20259;-71
2021/11/08 10:49:05;;;;;;;12.07;5.93;;;;;;;8.32;85.25;97345.84;5079545;28;20168;-70
2021/11/08 10:51:31;;;;;;;10.30;5.17;;;;;;;8.32;84.50;97353.69;5103619;28;20200;-71
2021/11/08 10:54:02;;;;;;;8.47;5.27;;;;;;;8.02;83.57;97357.63;5115612;28;20555;-71
2021/11/08 10:56:37;;;;;;;9.93;4.47;;;;;;;8.12;82.11;97365.06;5114374;28;20196;-71
2021/11/08 10:59:09;;;;;;;12.03;5.37;;;;;;;7.92;83.38;97363.19;5115543;28;20346;-71
2021/11/08 11:01:51;;;;;;;13.60;6.00;;;;;;;7.83;86.50;97358.34;5104487;28;20187;-70
2021/11/08 11:04:18;;;;;;;16.67;6.00;;;;;;;8.18;85.08;97357.25;5099997;28;20230;-71
2021/11/08 11:06:50;;;;;;;13.50;6.97;;;;;;;7.89;86.83;97362.78;5095849;28;20183;-71
2021/11/08 11:09:25;;;;;;;11.30;6.40;;;;;;;7.84;87.94;97352.13;5097879;28;20259;-71
2021/11/08 11:12:20;;;;;;;15.70;5.67;;;;;;;8.24;85.74;97360.88;5105155;28;20195;-71
2021/11/08 11:14:56;;;;;;;14.53;6.67;;;;;;;8.20;85.22;97352.63;5110005;28;20266;-70
2021/11/08 11:17:25;;;;;;;16.20;6.03;;;;;;;8.28;84.38;97359.47;5104823;28;20204;-71
2021/11/08 11:20:03;;;;;;;12.33;5.50;;;;;;;8.28;83.21;97356.88;5095299;28;20180;-72
2021/11/08 11:22:29;;;;;;;16.80;5.90;;;;;;;8.34;82.96;97353.50;5095670;28;20183;-70
2021/11/08 11:24:56;;;;;;;15.43;4.80;;;;;;;8.49;82.10;97354.13;5092786;28;20181;-71
2021/11/08 11:27:24;;;;;;;10.43;5.00;;;;;;;8.39;80.97;97351.09;5094360;28;20242;-71
2021/11/08 11:29:51;;;;;;;8.93;5.03;;;;;;;8.25;80.61;97349.41;5093891;28;20199;-71
2021/11/08 11:32:27;;;;;;;12.23;4.30;;;;;;;7.94;82.00;97361.19;5094505;28;20220;-72
2021/11/08 11:34:56;;;;;;;8.60;4.70;;;;;;;7.99;82.60;97349.34;5113901;28;20171;-71
2021/11/08 11:37:24;;;;;;;11.33;4.30;;;;;;;7.84;81.29;97359.94;5100610;28;20181;-71
2021/11/08 11:40:07;;;;;;;7.43;4.20;;;;;;;7.49;83.04;97353.97;5113071;28;20179;-71
2021/11/08 11:42:44;;;;;;;8.33;3.90;;;;;;;7.27;81.99;97363.66;5099088;28;20297;-71
2021/11/08 11:45:10;;;;;;;7.83;3.87;;;;;;;7.47;81.81;97342.91;5082432;28;20225;-71
2021/11/08 11:47:35;;;;;;;12.27;3.90;;;;;;;7.85;81.33;97340.69;5094165;28;20260;-71
2021/11/08 11:50:01;;;;;;;13.70;4.10;;;;;;;8.02;80.58;97341.16;5094232;28;20189;-71
2021/11/08 11:52:28;;;;;;;9.80;4.00;;;;;;;8.34;77.96;97340.44;5095863;28;20207;-71
2021/11/08 11:54:53;;;;;;;8.33;3.83;;;;;;;8.60;77.69;97348.31;5114254;28;20188;-71
2021/11/08 11:57:19;;;;;;;11.37;4.20;;;;;;;9.08;75.79;97343.66;5103403;28;20290;-71
2021/11/08 11:59:45;;;;;;;6.87;3.30;;;;;;;9.14;75.07;97339.44;5095909;28;20237;-71
2021/11/08 12:02:11;;;;;;;8.87;3.47;;;;;;;9.21;74.04;97336.81;5096517;28;20184;-70
2021/11/08 12:04:36;;;;;;;11.37;3.70;;;;;;;8.75;75.07;97343.69;5113860;28;20226;-70
2021/11/08 12:07:04;;;;;;;9.67;3.73;;;;;;;8.65;76.28;97330.22;5101859;28;20184;-70
2021/11/08 12:09:33;;;;;;;8.00;3.20;;;;;;;8.86;75.99;97328.41;5093940;28;20211;-71
2021/11/08 12:11:59;;;;;;;9.63;4.07;;;;;;;8.82;76.31;97329.81;5112652;28;20207;-71
2021/11/08 12:14:32;;;;;;;6.97;3.40;;;;;;;8.37;76.88;97326.97;5114268;28;20224;-70
2021/11/08 12:17:01;;;;;;;6.90;3.20;;;;;;;7.99;77.59;97318.84;5108779;28;20180;-71
2021/11/08 12:19:30;;;;;;;7.80;3.20;;;;;;;8.03;78.79;97321.84;5113598;28;20207;-71
2021/11/08 12:21:56;;;;;;;9.60;4.10;;;;;;;8.29;78.21;97322.72;5083754;28;20180;-71
2021/11/08 12:24:25;;;;;;;6.20;3.10;;;;;;;8.08;79.33;97319.47;5096663;28;20264;-71
2021/11/08 12:27:05;;;;;;;9.10;2.87;;;;;;;8.10;77.89;97318.25;5103236;28;20191;-72
2021/11/08 12:29:30;;;;;;;9.07;2.97;;;;;;;8.46;77.43;97312.72;5095906;28;20218;-72
2021/11/08 12:32:01;;;;;;;9.53;2.73;;;;;;;8.60;76.13;97311.72;5095078;28;20238;-73
2021/11/08 12:34:27;;;;;;;11.23;3.03;;;;;;;8.79;75.43;97311.94;5097851;28;20185;-75
2021/11/08 12:37:03;;;;;;;9.57;3.20;;;;;;;9.00;74.14;97304.66;5085668;28;20182;-69
2021/11/08 12:39:29;;;;;;;5.73;2.50;;;;;;;8.86;74.15;97318.75;5114382;28;20643;-73
2021/11/08 12:42:02;;;;;;;7.73;2.30;;;;;;;9.04;73.60;97318.94;5112753;28;20183;-73
2021/11/08 12:44:44;;;;;;;7.17;2.50;;;;;;;8.91;74.73;97312.94;5105362;28;20251;-70
2021/11/08 12:47:11;;;;;;;15.13;3.03;;;;;;;9.17;73.42;97298.00;5108434;28;20180;-72
2021/11/08 12:49:53;;;;;;;11.20;2.77;;;;;;;8.96;73.79;97302.66;5099759;28;20196;-74
2021/11/08 12:52:22;;;;;;;6.23;2.30;;;;;;;8.79;73.39;97299.66;5110214;28;20208;-74
2021/11/08 12:54:47;;;;;;;8.47;2.90;;;;;;;8.75;73.68;97304.47;5093488;28;20180;-75
2021/11/08 12:57:14;;;;;;;9.90;3.70;;;;;;;8.53;74.15;97295.22;5091899;28;20612;-72
2021/11/08 12:59:51;;;;;;;10.20;2.90;;;;;;;8.50;75.30;97292.22;5100478;28;20216;-72
2021/11/08 13:02:23;;;;;;;8.60;2.40;;;;;;;8.87;73.95;97296.03;5108997;28;20211;-72
2021/11/08 13:04:55;;;;;;;6.93;2.40;;;;;;;9.07;73.07;97294.19;5098045;28;20251;-69
2021/11/08 13:07:23;;;;;;;9.40;3.10;;;;;;;9.14;72.69;97295.78;5099527;28;20278;-73
2021/11/08 13:09:56;;;;;;;5.97;3.27;;;;;;;8.76;73.27;97289.59;5094259;28;20211;-73
2021/11/08 13:12:39;;;;;;;12.87;3.00;;;;;;;8.52;74.02;97300.69;5093029;28;20210;-73
2021/11/08 13:15:20;;;;;;;7.53;2.80;;;;;;;8.72;73.73;97299.66;5093695;28;20184;-74
2021/11/08 13:17:54;;;;;;;9.63;3.00;;;;;;;8.91;74.15;97300.66;5093329;28;20179;-74
2021/11/08 13:20:23;;;;;;;5.23;2.53;;;;;;;9.11;72.16;97290.97;5093902;28;20638;-74
2021/11/08 13:22:57;;;;;;;11.27;3.30;;;;;;;9.41;71.33;97299.16;5098596;28;20227;-72
2021/11/08 13:25:34;;;;;;;8.47;2.43;;;;;;;9.50;70.74;97299.72;5112242;28;20651;-72